Bookmark and Share
Track history (hours):
 

Wye River

More information available from US FCC via Universal Licensing System and Coast Guard Vessel Documentation Center.

Last reported at 2014-Apr-23 16:03 UTC. Time now 2014-Apr-24 13:52 UTC.
Position N 27°41' W 082°34'.

Length 30 m; draft 5 m.

Type: Towing. MMSI: 367341190.

NotesDate/timePositionNaut miles runAvg speedWind from/ knotsBaromVisibWave heightAir tempDewpointWater temp
2014-Apr-23 16:03N 27°41' W 082°34'5 9.8
2014-Apr-23 15:33N 27°45' W 082°31'8 8.2
2014-Apr-23 14:33N 27°52' W 082°27'3 2.6
2014-Apr-23 13:33N 27°55' W 082°27'1 1.1
2014-Apr-23 12:33N 27°56' W 082°26'0 0.0
2014-Apr-23 11:33N 27°56' W 082°26'0 0.0
2014-Apr-23 10:33N 27°56' W 082°26'0 0.0
2014-Apr-23 09:33N 27°56' W 082°26'0 0.0
2014-Apr-23 08:34N 27°56' W 082°26'0 0.0
2014-Apr-23 07:33N 27°56' W 082°26'0 0.0
2014-Apr-23 06:33N 27°56' W 082°26'0 0.0
2014-Apr-23 05:33N 27°56' W 082°26'0 0.0
2014-Apr-23 04:33N 27°56' W 082°26'0 0.0
2014-Apr-23 03:33N 27°56' W 082°26'0 0.0
2014-Apr-23 02:33N 27°56' W 082°26'0 0.0
2014-Apr-23 01:33N 27°56' W 082°26'0 0.0
2014-Apr-23 00:33N 27°56' W 082°26'0 0.0
2014-Apr-22 23:33N 27°56' W 082°26'1 1.1
2014-Apr-22 22:33N 27°55' W 082°27'8 7.1
2014-Apr-22 21:23N 27°47' W 082°31'  

Dump ship's entire track history

sailing weather and tide predictions

Wye River — WDE3583 — position and weather